This is the latest recevied weather packets stored in our database for station/object KK7MLS-13. If no packets are shown the sender has not sent any weather packets the latest 1 day(s).
| Time | Temp. | Humidity | Pressure | Rain* | Wind** | Luminosity | Snow |
|---|---|---|---|---|---|---|---|
| 1778036060 | 17.22° C | 71% | 1015.6 hPa | 0 mm | 0 m/s | 12 W/m² | - |
| 1778035756 | 17.22° C | 71% | 1015.8 hPa | 0 mm | 0 m/s | 16 W/m² | - |
| 1778035454 | 17.78° C | 70% | 1015.7 hPa | 0 mm | 0 m/s | 18 W/m² | - |
| 1778035149 | 17.78° C | 69% | 1015.7 hPa | 0 mm | 0 m/s | 20 W/m² | - |
| 1778034847 | 17.78° C | 68% | 1015.5 hPa | 0 mm | 0 m/s | 23 W/m² | - |
| 1778034543 | 17.78° C | 67% | 1015.6 hPa | 0 mm | 0 m/s | 26 W/m² | - |
| 1778034241 | 18.33° C | 69% | 1015.7 hPa | 0 mm | 0 m/s | 32 W/m² | - |
| 1778033939 | 18.33° C | 68% | 1015.6 hPa | 0 mm | 0 m/s | 35 W/m² | - |
| 1778033635 | 18.33° C | 67% | 1015.7 hPa | 0 mm | 0 m/s | 39 W/m² | - |
| 1778033332 | 18.33° C | 66% | 1015.5 hPa | 0 mm | 0 m/s | 35 W/m² | - |
| 1778033030 | 18.33° C | 65% | 1015.6 hPa | 0 mm | 0 m/s | 36 W/m² | - |
| 1778032727 | 18.89° C | 64% | 1015.6 hPa | 0 mm | 0 m/s | 40 W/m² | - |
| 1778032425 | 19.44° C | 64% | 1015.6 hPa | 0 mm | 0 m/s | 46 W/m² | - |
| 1778032121 | 19.44° C | 63% | 1015.5 hPa | 0 mm | 0 m/s | 46 W/m² | - |
| 1778031818 | 20° C | 62% | 1015.6 hPa | 0 mm | 0 m/s | 53 W/m² | - |
| 1778031515 | 20° C | 62% | 1015.6 hPa | 0 mm | 0 m/s | 68 W/m² | - |
| 1778031212 | 19.44° C | 66% | 1015.8 hPa | 0 mm | 0 m/s | 155 W/m² | - |
| 1778030909 | 19.44° C | 62% | 1015.9 hPa | 0 mm | 0 m/s | 85 W/m² | - |
| 1778030606 | 19.44° C | 64% | 1015.8 hPa | 0 mm | 0 m/s | 93 W/m² | - |
| 1778030303 | 19.44° C | 63% | 1015.6 hPa | 0 mm | 0 m/s | 93 W/m² | - |
| 1778030000 | 20° C | 61% | 1015.6 hPa | 0 mm | 0 m/s | 89 W/m² | - |
| 1778029697 | 20° C | 61% | 1015.6 hPa | 0 mm | 0 m/s | 82 W/m² | - |
| 1778029395 | 20° C | 61% | 1015.8 hPa | 0 mm | 0 m/s | 87 W/m² | - |
| 1778029092 | 19.44° C | 63% | 1015.7 hPa | 0 mm | 0.89 m/s, 62° | 204 W/m² | - |
| 1778028788 | 18.89° C | 65% | 1015.6 hPa | 0 mm | 0 m/s | 102 W/m² | - |
* Rain latest hour (hover to see other rain measurements)
** Current wind speed in m/s (hover to see current wind gust speed)